| time (UTC) | temp C | wind direction | speed KPH | gust KPH | rain 1hr cm | rain 24hr cm | rain mn cm | humidity % | barometer mb |
| 20260503034010 | 22 | 254 | 6.4 | 14.5 | 0.03 | 0.91 | 0.91 | 92 | 1015.0 |
| 20260503033507 | 22 | 293 | 4.8 | 11.3 | 0.03 | 0.91 | 0.91 | 92 | 1014.7 |
| 20260503033042 | 22 | 293 | 4.8 | 11.3 | 0.05 | 0.91 | 0.91 | 91 | 1014.5 |
| 20260503032506 | 22 | 251 | 4.8 | 12.9 | 0.05 | 0.91 | 0.91 | 92 | 1014.2 |
| 20260503032010 | 22 | 223 | 8.0 | 12.9 | 0.05 | 0.91 | 0.91 | 91 | 1013.9 |
| 20260503031534 | 21 | 221 | 6.4 | 11.3 | 0.05 | 0.91 | 0.91 | 91 | 1013.6 |
| 20260503031008 | 21 | 238 | 6.4 | 16.1 | 0.08 | 0.91 | 0.91 | 91 | 1013.4 |
| 20260503030507 | 22 | 192 | 8.0 | 16.1 | 0.08 | 0.91 | 0.91 | 91 | 1013.1 |
| 20260503030030 | 22 | 193 | 6.4 | 14.5 | 0.13 | 0.91 | 0.91 | 91 | 1013.3 |
| 20260503025511 | 22 | 205 | 4.8 | 19.3 | 0.13 | 0.91 | 0.91 | 91 | 1013.2 |
| 20260503025011 | 21 | 180 | 11.3 | 22.5 | 0.13 | 0.89 | 0.89 | 91 | 1012.9 |
| 20260503024516 | 22 | 173 | 14.5 | 22.5 | 0.13 | 0.89 | 0.89 | 91 | 1012.9 |
| 20260503024011 | 22 | 156 | 11.3 | 17.7 | 0.13 | 0.89 | 0.89 | 91 | 1013.2 |
| 20260503023506 | 22 | 165 | 6.4 | 14.5 | 0.13 | 0.89 | 0.89 | 91 | 1013.5 |
| 20260503023040 | 22 | 175 | 6.4 | 16.1 | 0.10 | 0.86 | 0.86 | 91 | 1013.5 |
| 20260503022508 | 22 | 170 | 8.0 | 16.1 | 0.10 | 0.86 | 0.86 | 91 | 1013.8 |
| 20260503022011 | 22 | 169 | 8.0 | 14.5 | 0.10 | 0.86 | 0.86 | 91 | 1013.8 |
| 20260503021523 | 22 | 190 | 4.8 | 12.9 | 0.10 | 0.86 | 0.86 | 91 | 1013.8 |
| 20260503021008 | 22 | 177 | 8.0 | 12.9 | 0.10 | 0.84 | 0.84 | 92 | 1013.7 |
| 20260503020509 | 22 | 230 | 3.2 | 8.0 | 0.10 | 0.84 | 0.84 | 91 | 1014.1 |
| 20260503020026 | 22 | 251 | 3.2 | 9.7 | 0.05 | 0.79 | 0.79 | 91 | 1014.1 |
| 20260503015508 | 22 | 304 | 1.6 | 9.7 | 0.10 | 0.79 | 0.79 | 92 | 1014.0 |
| 20260503015012 | 22 | 277 | 0.0 | 8.0 | 0.08 | 0.76 | 0.76 | 92 | 1014.0 |
| 20260503014528 | 22 | 267 | 1.6 | 9.7 | 0.10 | 0.76 | 0.76 | 92 | 1014.1 |
| 20260503014010 | 22 | 246 | 4.8 | 14.5 | 0.10 | 0.76 | 0.76 | 92 | 1013.8 |
| 20260503013506 | 22 | 189 | 6.4 | 16.1 | 0.10 | 0.76 | 0.76 | 92 | 1013.3 |
| 20260503013018 | 22 | 182 | 11.3 | 16.1 | 0.15 | 0.76 | 0.76 | 92 | 1013.3 |
| 20260503012509 | 22 | 161 | 4.8 | 11.3 | 0.15 | 0.76 | 0.76 | 93 | 1013.5 |
| 20260503012009 | 22 | 173 | 6.4 | 14.5 | 0.15 | 0.76 | 0.76 | 93 | 1013.4 |
| 20260503011520 | 22 | 163 | 6.4 | 14.5 | 0.15 | 0.76 | 0.76 | 93 | 1013.6 |
| 20260503011008 | 22 | 182 | 8.0 | 12.9 | 0.13 | 0.74 | 0.74 | 93 | 1013.5 |
| 20260503010514 | 22 | 175 | 6.4 | 12.9 | 0.15 | 0.74 | 0.74 | 93 | 1013.6 |
| 20260503010031 | 22 | 173 | 8.0 | 12.9 | 0.20 | 0.74 | 0.74 | 93 | 1013.6 |
| 20260503005510 | 22 | 191 | 6.4 | 11.3 | 0.23 | 0.69 | 0.69 | 93 | 1013.7 |
| 20260503005012 | 22 | 184 | 4.8 | 11.3 | 0.30 | 0.69 | 0.69 | 93 | 1013.5 |
| 20260503004508 | 22 | 194 | 4.8 | 9.7 | 0.28 | 0.66 | 0.66 | 93 | 1013.5 |
| 20260503004007 | 22 | 215 | 3.2 | 9.7 | 0.28 | 0.66 | 0.66 | 93 | 1013.5 |
| 20260503003506 | 22 | 211 | 6.4 | 9.7 | 0.28 | 0.66 | 0.66 | 93 | 1013.2 |
| 20260503003017 | 22 | 159 | 4.8 | 9.7 | 0.23 | 0.61 | 0.61 | 93 | 1013.3 |
| 20260503002511 | 22 | 204 | 3.2 | 9.7 | 0.23 | 0.61 | 0.61 | 93 | 1013.3 |
| 20260503002007 | 22 | 232 | 6.4 | 9.7 | 0.23 | 0.61 | 0.61 | 93 | 1013.2 |
| 20260503001522 | 22 | 134 | 4.8 | 8.0 | 0.23 | 0.61 | 0.61 | 93 | 1012.8 |
| 20260503001009 | 22 | 165 | 0.0 | 8.0 | 0.23 | 0.61 | 0.61 | 92 | 1013.2 |
| 20260503000504 | 22 | 241 | 4.8 | 8.0 | 0.20 | 0.58 | 0.58 | 92 | 1013.4 |
| 20260503000008 | 22 | 244 | 1.6 | 9.7 | 0.15 | 0.53 | 0.53 | 92 | 1013.3 |
| 20260502235503 | 23 | 265 | 4.8 | 9.7 | 0.08 | 0.46 | 0.46 | 92 | 1013.4 |
| 20260502235003 | 23 | 252 | 3.2 | 8.0 | 0.00 | 0.38 | 0.38 | 92 | 1013.3 |
| 20260502234507 | 22 | 252 | 3.2 | 6.4 | 0.03 | 0.38 | 0.38 | 92 | 1013.3 |
| 20260502234003 | 22 | 334 | 0.0 | 6.4 | 0.03 | 0.38 | 0.38 | 92 | 1013.1 |
| 20260502233507 | 22 | 322 | 1.6 | 6.4 | 0.08 | 0.38 | 0.38 | 92 | 1013.1 |
| 20260502233011 | 22 | 296 | 0.0 | 11.3 | 0.13 | 0.38 | 0.38 | 92 | 1013.2 |
| 20260502232507 | 22 | 297 | 4.8 | 11.3 | 0.38 | 0.38 | 0.38 | 92 | 1013.1 |
| 20260502232010 | 22 | 324 | 3.2 | 14.5 | 0.38 | 0.38 | 0.38 | 92 | 1013.0 |
| 20260502231522 | 22 | 286 | 3.2 | 14.5 | 0.38 | 0.38 | 0.38 | 92 | 1013.2 |
| 20260502231007 | 22 | 294 | 3.2 | 12.9 | 0.38 | 0.38 | 0.38 | 92 | 1013.2 |
| 20260502230510 | 22 | 284 | 3.2 | 16.1 | 0.38 | 0.38 | 0.38 | 91 | 1013.1 |
| 20260502230023 | 22 | 259 | 6.4 | 16.1 | 0.38 | 0.38 | 0.38 | 91 | 1013.1 |
| 20260502225502 | 22 | 310 | 6.4 | 16.1 | 0.38 | 0.38 | 0.38 | 90 | 1012.9 |
| 20260502225002 | 22 | 298 | 6.4 | 16.1 | 0.38 | 0.38 | 0.38 | 89 | 1012.9 |
| 20260502224507 | 22 | 323 | 4.8 | 22.5 | 0.36 | 0.36 | 0.36 | 88 | 1012.9 |
| 20260502224002 | 22 | 296 | 11.3 | 29.0 | 0.36 | 0.36 | 0.36 | 87 | 1012.9 |
| 20260502223505 | 23 | 295 | 14.5 | 49.9 | 0.30 | 0.30 | 0.30 | 84 | 1012.7 |
| 20260502223009 | 25 | 292 | 14.5 | 49.9 | 0.25 | 0.25 | 0.25 | 79 | 1012.5 |
| 20260502222508 | 27 | 251 | 29.0 | 49.9 | 0.00 | 0.00 | 0.00 | 76 | 1012.1 |
| 20260502222008 | 27 | 211 | 11.3 | 24.1 | 0.00 | 0.00 | 0.00 | 80 | 1011.6 |
| 20260502221517 | 27 | 289 | 12.9 | 24.1 | 0.00 | 0.00 | 0.00 | 80 | 1011.6 |
| 20260502221006 | 27 | 215 | 16.1 | 25.7 | 0.00 | 0.00 | 0.00 | 80 | 1011.6 |
| 20260502220511 | 27 | 241 | 14.5 | 25.7 | 0.00 | 0.00 | 0.00 | 79 | 1011.6 |
| 20260502220022 | 27 | 251 | 14.5 | 24.1 | 0.00 | 0.00 | 0.00 | 79 | 1011.8 |
| 20260502215510 | 27 | 264 | 14.5 | 25.7 | 0.00 | 0.00 | 0.00 | 79 | 1011.9 |
| 20260502215010 | 27 | 298 | 16.1 | 25.7 | 0.00 | 0.00 | 0.00 | 78 | 1011.8 |
| 20260502214504 | 27 | 250 | 12.9 | 25.7 | 0.00 | 0.00 | 0.00 | 77 | 1011.8 |
| 20260502214004 | 28 | 273 | 11.3 | 25.7 | 0.00 | 0.00 | 0.00 | 77 | 1011.8 |
| 20260502213503 | 28 | 234 | 16.1 | 25.7 | 0.00 | 0.00 | 0.00 | 76 | 1011.9 |
| 20260502213007 | 28 | 251 | 11.3 | 25.7 | 0.00 | 0.00 | 0.00 | 75 | 1011.7 |
| 20260502212505 | 28 | 207 | 14.5 | 25.7 | 0.00 | 0.00 | 0.00 | 74 | 1011.6 |
| 20260502212005 | 28 | 252 | 11.3 | 22.5 | 0.00 | 0.00 | 0.00 | 73 | 1011.5 |
| 20260502211514 | 28 | 258 | 11.3 | 27.4 | 0.00 | 0.00 | 0.00 | 73 | 1011.4 |
| 20260502211007 | 28 | 253 | 12.9 | 27.4 | 0.00 | 0.00 | 0.00 | 72 | 1011.3 |
| 20260502210506 | 28 | 317 | 9.7 | 25.7 | 0.00 | 0.00 | 0.00 | 72 | 1011.3 |
| 20260502210020 | 28 | 245 | 9.7 | 30.6 | 0.00 | 0.00 | 0.00 | 71 | 1011.3 |
| 20260502205507 | 28 | 247 | 16.1 | 30.6 | 0.00 | 0.00 | 0.00 | 68 | 1011.3 |
| 20260502205010 | 29 | 219 | 16.1 | 30.6 | 0.00 | 0.00 | 0.00 | 68 | 1011.4 |
| 20260502204527 | 29 | 218 | 14.5 | 32.2 | 0.00 | 0.00 | 0.00 | 68 | 1011.2 |
| 20260502204011 | 30 | 235 | 17.7 | 30.6 | 0.00 | 0.00 | 0.00 | 66 | 1011.1 |
| 20260502203510 | 30 | 232 | 17.7 | 29.0 | 0.00 | 0.00 | 0.00 | 66 | 1011.2 |
| 20260502203014 | 30 | 251 | 16.1 | 27.4 | 0.00 | 0.00 | 0.00 | 66 | 1011.2 |
| 20260502202506 | 30 | 260 | 12.9 | 25.7 | 0.00 | 0.00 | 0.00 | 67 | 1011.3 |
| 20260502202006 | 30 | 260 | 11.3 | 27.4 | 0.00 | 0.00 | 0.00 | 68 | 1011.3 |
| 20260502201516 | 30 | 225 | 16.1 | 27.4 | 0.00 | 0.00 | 0.00 | 66 | 1011.2 |
| 20260502201006 | 30 | 256 | 17.7 | 27.4 | 0.00 | 0.00 | 0.00 | 65 | 1011.2 |
| 20260502200507 | 30 | 258 | 16.1 | 25.7 | 0.00 | 0.00 | 0.00 | 65 | 1011.2 |
| 20260502200019 | 30 | 253 | 16.1 | 29.0 | 0.00 | 0.00 | 0.00 | 66 | 1011.2 |
| 20260502195509 | 30 | 273 | 12.9 | 29.0 | 0.00 | 0.00 | 0.00 | 66 | 1011.2 |
| 20260502195005 | 30 | 241 | 16.1 | 29.0 | 0.00 | 0.00 | 0.00 | 63 | 1011.2 |
| 20260502194520 | 30 | 262 | 14.5 | 29.0 | 0.00 | 0.00 | 0.00 | 65 | 1011.0 |
| 20260502194009 | 31 | 219 | 16.1 | 29.0 | 0.00 | 0.00 | 0.00 | 64 | 1011.0 |
| 20260502193508 | 31 | 231 | 14.5 | 29.0 | 0.00 | 0.00 | 0.00 | 66 | 1011.1 |
| 20260502193024 | 31 | 231 | 19.3 | 29.0 | 0.00 | 0.00 | 0.00 | 62 | 1011.1 |
| 20260502192514 | 31 | 254 | 17.7 | 27.4 | 0.00 | 0.00 | 0.00 | 65 | 1011.4 |
| 20260502192006 | 31 | 273 | 16.1 | 27.4 | 0.00 | 0.00 | 0.00 | 66 | 1011.6 |
| 20260502191515 | 31 | 227 | 19.3 | 25.7 | 0.00 | 0.00 | 0.00 | 65 | 1011.7 |
| 20260502191004 | 30 | 244 | 14.5 | 25.7 | 0.00 | 0.00 | 0.00 | 68 | 1011.6 |
| 20260502190509 | 30 | 230 | 14.5 | 25.7 | 0.00 | 0.00 | 0.00 | 67 | 1011.6 |
| 20260502190015 | 31 | 232 | 16.1 | 30.6 | 0.00 | 0.00 | 0.00 | 68 | 1011.7 |
| 20260502185508 | 31 | 254 | 17.7 | 30.6 | 0.00 | 0.00 | 0.00 | 67 | 1011.8 |
| 20260502185010 | 31 | 245 | 17.7 | 29.0 | 0.00 | 0.00 | 0.00 | 68 | 1012.1 |
| 20260502184527 | 31 | 229 | 14.5 | 30.6 | 0.00 | 0.00 | 0.00 | 69 | 1012.1 |
| 20260502184009 | 31 | 290 | 19.3 | 30.6 | 0.00 | 0.00 | 0.00 | 69 | 1012.1 |
| 20260502183510 | 31 | 251 | 16.1 | 27.4 | 0.00 | 0.00 | 0.00 | 69 | 1012.2 |
| 20260502183024 | 30 | 244 | 16.1 | 27.4 | 0.00 | 0.00 | 0.00 | 71 | 1012.3 |
| 20260502182509 | 30 | 257 | 12.9 | 30.6 | 0.00 | 0.00 | 0.00 | 70 | 1012.3 |
| 20260502182011 | 31 | 257 | 16.1 | 30.6 | 0.00 | 0.00 | 0.00 | 71 | 1012.4 |
| 20260502181526 | 31 | 230 | 16.1 | 25.7 | 0.00 | 0.00 | 0.00 | 71 | 1012.4 |
| 20260502181004 | 31 | 234 | 16.1 | 29.0 | 0.00 | 0.00 | 0.00 | 69 | 1012.3 |
| 20260502180509 | 31 | 247 | 19.3 | 29.0 | 0.00 | 0.00 | 0.00 | 70 | 1012.4 |
| 20260502170514 | 30 | 279 | 14.5 | 29.0 | 0.00 | 0.00 | 0.00 | 71 | 1012.7 |
| 20260502164010 | 30 | 241 | 11.3 | 29.0 | 0.00 | 0.00 | 0.00 | 72 | 1012.5 |
| 20260502163506 | 30 | 261 | 16.1 | 29.0 | 0.00 | 0.00 | 0.00 | 72 | 1012.5 |
| 20260502163025 | 30 | 206 | 12.9 | 32.2 | 0.00 | 0.00 | 0.00 | 72 | 1012.5 |
| 20260502162512 | 30 | 208 | 19.3 | 32.2 | 0.00 | 0.00 | 0.00 | 72 | 1012.5 |
| 20260502162011 | 30 | 217 | 16.1 | 32.2 | 0.00 | 0.00 | 0.00 | 73 | 1012.5 |
| 20260502161525 | 30 | 196 | 14.5 | 30.6 | 0.00 | 0.00 | 0.00 | 75 | 1012.4 |
| 20260502161012 | 30 | 229 | 17.7 | 30.6 | 0.00 | 0.00 | 0.00 | 74 | 1012.5 |
| 20260502160509 | 30 | 280 | 16.1 | 29.0 | 0.00 | 0.00 | 0.00 | 74 | 1012.5 |
| 20260502152008 | 28 | 190 | 17.7 | 35.4 | 0.00 | 0.00 | 0.00 | 76 | 1012.1 |
| 20260502151536 | 28 | 215 | 19.3 | 35.4 | 0.00 | 0.00 | 0.00 | 75 | 1012.2 |
| 20260502151011 | 28 | 223 | 20.9 | 40.2 | 0.00 | 0.00 | 0.00 | 76 | 1012.3 |
| 20260502150509 | 28 | 202 | 24.1 | 40.2 | 0.00 | 0.00 | 0.00 | 76 | 1012.2 |
| 20260502130506 | 26 | 236 | 14.5 | 27.4 | 0.00 | 0.00 | 0.00 | 84 | 1011.8 |
| 20260502123506 | 25 | 167 | 6.4 | 14.5 | 0.00 | 0.00 | 0.00 | 87 | 1011.6 |
| 20260502123012 | 25 | 163 | 6.4 | 12.9 | 0.00 | 0.00 | 0.00 | 87 | 1011.6 |
| 20260502122506 | 25 | 187 | 6.4 | 14.5 | 0.00 | 0.00 | 0.00 | 88 | 1011.5 |
| 20260502122006 | 24 | 181 | 8.0 | 14.5 | 0.00 | 0.00 | 0.00 | 88 | 1011.5 |
| 20260502121518 | 24 | 170 | 8.0 | 12.9 | 0.00 | 0.00 | 0.00 | 89 | 1011.5 |
| 20260502121008 | 23 | 191 | 6.4 | 11.3 | 0.00 | 0.00 | 0.00 | 89 | 1011.4 |
| 20260502120507 | 23 | 168 | 4.8 | 11.3 | 0.00 | 0.00 | 0.00 | 89 | 1011.5 |
| 20260502115507 | 23 | 164 | 6.4 | 11.3 | 0.00 | 0.00 | 0.00 | 90 | 1011.4 |
| 20260502115010 | 23 | 184 | 4.8 | 11.3 | 0.00 | 0.00 | 0.00 | 90 | 1011.4 |
| 20260502114526 | 22 | 164 | 6.4 | 11.3 | 0.00 | 0.00 | 0.00 | 90 | 1011.3 |
| 20260502114007 | 22 | 169 | 6.4 | 11.3 | 0.00 | 0.00 | 0.00 | 90 | 1011.4 |
| 20260502113510 | 22 | 160 | 4.8 | 12.9 | 0.00 | 0.00 | 0.00 | 90 | 1011.4 |
| 20260502113010 | 22 | 151 | 3.2 | 12.9 | 0.00 | 0.00 | 0.00 | 90 | 1011.4 |
| 20260502112506 | 22 | 175 | 4.8 | 12.9 | 0.00 | 0.00 | 0.00 | 91 | 1011.4 |
| 20260502112007 | 22 | 149 | 6.4 | 11.3 | 0.00 | 0.00 | 0.00 | 91 | 1011.4 |
| 20260502111516 | 22 | 175 | 6.4 | 11.3 | 0.00 | 0.00 | 0.00 | 91 | 1011.5 |
| 20260502111006 | 22 | 159 | 4.8 | 9.7 | 0.00 | 0.00 | 0.00 | 91 | 1011.6 |
| 20260502110506 | 22 | 165 | 0.0 | 6.4 | 0.00 | 0.00 | 0.00 | 91 | 1011.5 |
| 20260502110026 | 22 | 167 | 1.6 | 6.4 | 0.00 | 0.00 | 0.00 | 91 | 1011.4 |
| 20260502105507 | 22 | 157 | 4.8 | 6.4 | 0.00 | 0.00 | 0.00 | 91 | 1011.4 |
| 20260502105005 | 22 | 142 | 1.6 | 4.8 | 0.00 | 0.00 | 0.00 | 91 | 1011.4 |
| 20260502104524 | 22 | 116 | 1.6 | 4.8 | 0.00 | 0.00 | 0.00 | 91 | 1011.4 |
| 20260502104011 | 22 | 138 | 3.2 | 6.4 | 0.00 | 0.00 | 0.00 | 91 | 1011.4 |
| 20260502103511 | 22 | 135 | 1.6 | 6.4 | 0.00 | 0.00 | 0.00 | 91 | 1011.4 |
| 20260502103027 | 22 | 159 | 0.0 | 8.0 | 0.00 | 0.00 | 0.00 | 90 | 1011.4 |
| 20260502102510 | 22 | 103 | 3.2 | 8.0 | 0.00 | 0.00 | 0.00 | 90 | 1011.4 |
| 20260502102010 | 22 | 147 | 1.6 | 8.0 | 0.00 | 0.00 | 0.00 | 90 | 1011.4 |
| 20260502101514 | 22 | 143 | 3.2 | 6.4 | 0.00 | 0.00 | 0.00 | 90 | 1011.4 |
| 20260502101012 | 22 | 144 | 3.2 | 6.4 | 0.00 | 0.00 | 0.00 | 90 | 1011.4 |
| 20260502100506 | 22 | 140 | 3.2 | 6.4 | 0.00 | 0.00 | 0.00 | 90 | 1011.4 |
| 20260502091526 | 22 | 140 | 3.2 | 9.7 | 0.00 | 0.00 | 0.00 | 89 | 1011.7 |
| 20260502091010 | 22 | 144 | 4.8 | 9.7 | 0.00 | 0.00 | 0.00 | 89 | 1011.7 |
| 20260502090505 | 22 | 159 | 3.2 | 9.7 | 0.00 | 0.00 | 0.00 | 88 | 1011.7 |
| 20260502071528 | 21 | 99 | 0.0 | 0.0 | 0.00 | 0.00 | 0.00 | 91 | 1011.7 |
| 20260502071012 | 21 | 99 | 0.0 | 0.0 | 0.00 | 0.00 | 0.00 | 90 | 1011.7 |
| 20260502070511 | 21 | 99 | 0.0 | 0.0 | 0.00 | 0.00 | 0.00 | 90 | 1011.7 |
| 20260502070026 | 21 | 14 | 0.0 | 0.0 | 0.00 | 0.00 | 0.00 | 90 | 1011.7 |
| 20260502065512 | 21 | 14 | 0.0 | 0.0 | 0.00 | 0.00 | 0.00 | 90 | 1011.8 |
| 20260502065013 | 21 | 14 | 0.0 | 0.0 | 0.00 | 0.00 | 0.00 | 90 | 1011.8 |
| 20260502064531 | 21 | 14 | 0.0 | 0.0 | 0.00 | 0.00 | 0.00 | 90 | 1011.8 |
| 20260502064007 | 21 | 14 | 0.0 | 0.0 | 0.00 | 0.00 | 0.00 | 89 | 1011.8 |
| 20260502063503 | 21 | 14 | 0.0 | 0.0 | 0.00 | 0.00 | 0.00 | 89 | 1011.7 |
| 20260502063008 | 21 | 14 | 0.0 | 0.0 | 0.00 | 0.00 | 0.00 | 89 | 1011.7 |
| 20260502062506 | 21 | 14 | 0.0 | 0.0 | 0.00 | 0.00 | 0.00 | 89 | 1011.7 |
| 20260502062004 | 21 | 14 | 0.0 | 0.0 | 0.00 | 0.00 | 0.00 | 89 | 1011.7 |
| 20260502061505 | 21 | 14 | 0.0 | 0.0 | 0.00 | 0.00 | 0.00 | 88 | 1011.7 |
| 20260502061004 | 21 | 14 | 0.0 | 0.0 | 0.00 | 0.00 | 0.00 | 88 | 1011.8 |
| 20260502060503 | 21 | 14 | 0.0 | 0.0 | 0.00 | 0.00 | 0.00 | 88 | 1011.9 |
| 20260502060004 | 21 | 14 | 0.0 | 0.0 | 0.00 | 0.00 | 0.00 | 88 | 1011.8 |
| 20260502055504 | 21 | 14 | 0.0 | 0.0 | 0.00 | 0.00 | 0.00 | 88 | 1011.9 |
| 20260502055003 | 21 | 14 | 0.0 | 0.0 | 0.00 | 0.00 | 0.00 | 88 | 1012.0 |
| 20260502054504 | 21 | 14 | 0.0 | 0.0 | 0.00 | 0.00 | 0.00 | 87 | 1012.0 |
| 20260502054004 | 22 | 14 | 0.0 | 0.0 | 0.00 | 0.00 | 0.00 | 87 | 1012.1 |
| 20260502053503 | 22 | 14 | 0.0 | 0.0 | 0.00 | 0.00 | 0.00 | 87 | 1012.1 |
| 20260502053004 | 22 | 331 | 0.0 | 0.0 | 0.00 | 0.00 | 0.00 | 87 | 1012.0 |
| 20260502052504 | 22 | 270 | 0.0 | 0.0 | 0.00 | 0.00 | 0.00 | 87 | 1012.2 |
| 20260502052004 | 22 | 270 | 0.0 | 0.0 | 0.00 | 0.00 | 0.00 | 87 | 1012.3 |
| 20260502051505 | 22 | 270 | 0.0 | 0.0 | 0.00 | 0.00 | 0.00 | 87 | 1012.3 |
| 20260502051003 | 22 | 270 | 0.0 | 0.0 | 0.00 | 0.00 | 0.00 | 87 | 1012.3 |
| 20260502050504 | 22 | 270 | 0.0 | 0.0 | 0.00 | 0.00 | 0.00 | 87 | 1012.4 |
| 20260502050007 | 22 | 270 | 0.0 | 0.0 | 0.00 | 0.00 | 0.00 | 86 | 1012.4 |
| 20260502045502 | 22 | 271 | 0.0 | 0.0 | 0.00 | 0.00 | 0.00 | 86 | 1012.5 |
| 20260502045009 | 22 | 270 | 0.0 | 0.0 | 0.00 | 0.00 | 0.00 | 86 | 1012.4 |
| 20260502044506 | 22 | 270 | 0.0 | 0.0 | 0.00 | 0.00 | 0.00 | 85 | 1012.4 |
| 20260502044006 | 22 | 270 | 0.0 | 0.0 | 0.00 | 0.00 | 0.00 | 85 | 1012.3 |
| 20260502043505 | 22 | 270 | 0.0 | 1.6 | 0.00 | 0.00 | 0.00 | 85 | 1012.4 |
| 20260502043008 | 22 | 265 | 0.0 | 3.2 | 0.00 | 0.00 | 0.00 | 85 | 1012.3 |
| 20260502042504 | 22 | 261 | 0.0 | 4.8 | 0.00 | 0.00 | 0.00 | 85 | 1012.3 |
| 20260502042004 | 22 | 248 | 1.6 | 4.8 | 0.00 | 0.00 | 0.00 | 85 | 1012.3 |
| 20260502041515 | 22 | 252 | 0.0 | 4.8 | 0.00 | 0.00 | 0.00 | 85 | 1012.2 |
| 20260502041004 | 22 | 255 | 1.6 | 6.4 | 0.00 | 0.00 | 0.00 | 85 | 1012.3 |
| 20260502040504 | 22 | 242 | 1.6 | 6.4 | 0.00 | 0.00 | 0.00 | 84 | 1012.2 |
| 20260502040007 | 22 | 242 | 0.0 | 4.8 | 0.00 | 0.00 | 0.00 | 84 | 1012.2 |
| 20260502035503 | 22 | 236 | 1.6 | 4.8 | 0.00 | 0.00 | 0.00 | 84 | 1012.2 |
| 20260502035004 | 22 | 243 | 1.6 | 6.4 | 0.00 | 0.00 | 0.00 | 84 | 1012.3 |
| 20260502034506 | 22 | 239 | 1.6 | 6.4 | 0.00 | 0.00 | 0.00 | 84 | 1012.4 |